New Horizon — WKWB — position and weather

sailwx.info

Track history (hours):
 
Tides and Currents Weather Stations Pressure Air Temp Water Temp Dewpoint Dewpoint Depression Visibility Wind Speed Wind Dir Waves Ship Positions

Oceanographic research ship New Horizon (USA)

Detailed information on ship capabilities available from University of Delaware's Ocean Information Center.

Owner: Bold Horizon, LLC., Annapolis, MD. More information available from US FCC via Universal Licensing System and Coast Guard Vessel Documentation Center.

Last reported at 2018-Dec-11 22:58 UTC. Time now 2018-Dec-12 03:46 UTC.
Position N 32°42' W 117°09'.

Type: Other ship. MMSI: 303273000.

Date/timePositionNaut miles runAvg speedWind from/ knotsBaromVisibWave heightAir tempDewpointWater temp
2018-Dec-11 22:58N 32°42' W 117°09'3 7.4
2018-Dec-11 22:30N 32°43' W 117°13'1 2.1
2018-Dec-11 22:01N 32°42' W 117°14'3 6.6
2018-Dec-11 21:31N 32°39' W 117°13'2 3.0
2018-Dec-11 21:00N 32°37' W 117°13'0 0.3
2018-Dec-11 20:30N 32°38' W 117°13'0 0.6
2018-Dec-11 20:01N 32°38' W 117°12'0 0.3
2018-Dec-11 19:30N 32°38' W 117°12'0 0.3
2018-Dec-11 19:00N 32°37' W 117°13'0 0.6
2018-Dec-11 18:30N 32°38' W 117°13'0 0.1
2018-Dec-11 18:01N 32°38' W 117°13'0 0.3
2018-Dec-11 17:31N 32°37' W 117°13'1 1.1
2018-Dec-11 17:00N 32°38' W 117°13'4 8.1
2018-Dec-11 16:30N 32°42' W 117°14'0 0.7
2018-Dec-11 16:00N 32°42' W 117°14'2 3.7
2018-Dec-11 15:30N 32°43' W 117°12'  
Track history (hours):
 
Tides and Currents Weather Stations Pressure Air Temp Water Temp Dewpoint Dewpoint Depression Visibility Wind Speed Wind Dir Waves Ship Positions

Oceanographic research ship New Horizon (USA)

Detailed information on ship capabilities available from University of Delaware's Ocean Information Center.

Owner: Bold Horizon, LLC., Annapolis, MD. More information available from US FCC via Universal Licensing System and Coast Guard Vessel Documentation Center.

Last reported at 2018-Dec-11 22:58 UTC. Time now 2018-Dec-12 03:46 UTC.
Position N 32°42' W 117°09'.

Type: Other ship. MMSI: 303273000.

Date/timePositionNaut miles runAvg speedWind from/ knotsBaromVisibWave heightAir tempDewpointWater temp
2018-Dec-11 22:58N 32°42' W 117°09'3 7.4
2018-Dec-11 22:30N 32°43' W 117°13'1 2.1
2018-Dec-11 22:01N 32°42' W 117°14'3 6.6
2018-Dec-11 21:31N 32°39' W 117°13'2 3.0
2018-Dec-11 21:00N 32°37' W 117°13'0 0.3
2018-Dec-11 20:30N 32°38' W 117°13'0 0.6
2018-Dec-11 20:01N 32°38' W 117°12'0 0.3
2018-Dec-11 19:30N 32°38' W 117°12'0 0.3
2018-Dec-11 19:00N 32°37' W 117°13'0 0.6
2018-Dec-11 18:30N 32°38' W 117°13'0 0.1
2018-Dec-11 18:01N 32°38' W 117°13'0 0.3
2018-Dec-11 17:31N 32°37' W 117°13'1 1.1
2018-Dec-11 17:00N 32°38' W 117°13'4 8.1
2018-Dec-11 16:30N 32°42' W 117°14'0 0.7
2018-Dec-11 16:00N 32°42' W 117°14'2 3.7
2018-Dec-11 15:30N 32°43' W 117°12'  

Dump ship's entire track history